sensor_id;sensor_type;location;lat;lon;timestamp;pressure;altitude;pressure_sealevel;temperature;humidity
15880;BME280;61999;51.514;14.614;2023-07-13T00:01:13;99631.22;;;16.43;50.43
15880;BME280;61999;51.514;14.614;2023-07-13T00:03:42;99637.34;;;16.99;47.51
15880;BME280;61999;51.514;14.614;2023-07-13T00:06:10;99642.28;;;17.18;46.55
15880;BME280;61999;51.514;14.614;2023-07-13T00:08:38;99653.25;;;17.15;47.75
15880;BME280;61999;51.514;14.614;2023-07-13T00:11:06;99649.91;;;16.18;50.50
15880;BME280;61999;51.514;14.614;2023-07-13T00:13:34;99653.19;;;16.53;49.63
15880;BME280;61999;51.514;14.614;2023-07-13T00:16:07;99653.31;;;16.99;47.57
15880;BME280;61999;51.514;14.614;2023-07-13T00:18:36;99653.25;;;17.15;46.59
15880;BME280;61999;51.514;14.614;2023-07-13T00:21:05;99653.22;;;17.24;46.72
15880;BME280;61999;51.514;14.614;2023-07-13T00:23:34;99658.25;;;17.18;47.52
15880;BME280;61999;51.514;14.614;2023-07-13T00:26:03;99657.41;;;17.18;46.98
15880;BME280;61999;51.514;14.614;2023-07-13T00:28:32;99666.38;;;17.25;46.41
15880;BME280;61999;51.514;14.614;2023-07-13T00:31:01;99665.09;;;17.13;49.24
15880;BME280;61999;51.514;14.614;2023-07-13T00:33:30;99660.56;;;17.22;46.90
15880;BME280;61999;51.514;14.614;2023-07-13T00:35:59;99651.38;;;17.24;46.58
15880;BME280;61999;51.514;14.614;2023-07-13T00:38:27;99644.84;;;17.27;46.90
15880;BME280;61999;51.514;14.614;2023-07-13T00:40:55;99637.53;;;17.29;46.21
15880;BME280;61999;51.514;14.614;2023-07-13T00:43:28;99635.53;;;17.31;46.83
15880;BME280;61999;51.514;14.614;2023-07-13T00:46:21;99651.03;;;17.27;46.21
15880;BME280;61999;51.514;14.614;2023-07-13T00:48:51;99640.91;;;17.23;46.12
15880;BME280;61999;51.514;14.614;2023-07-13T00:51:28;99636.41;;;17.23;46.19
15880;BME280;61999;51.514;14.614;2023-07-13T00:54:04;99620.59;;;17.22;46.46
15880;BME280;61999;51.514;14.614;2023-07-13T00:56:33;99615.63;;;17.18;46.33
15880;BME280;61999;51.514;14.614;2023-07-13T00:59:04;99611.28;;;17.17;46.99
15880;BME280;61999;51.514;14.614;2023-07-13T01:01:34;99598.28;;;17.14;47.07
15880;BME280;61999;51.514;14.614;2023-07-13T01:04:05;99611.81;;;17.13;47.06
15880;BME280;61999;51.514;14.614;2023-07-13T01:06:35;99620.03;;;16.95;48.92
15880;BME280;61999;51.514;14.614;2023-07-13T01:09:06;99621.91;;;16.47;51.23
15880;BME280;61999;51.514;14.614;2023-07-13T01:11:35;99609.34;;;16.72;49.34
15880;BME280;61999;51.514;14.614;2023-07-13T01:14:04;99611.13;;;16.80;49.06
15880;BME280;61999;51.514;14.614;2023-07-13T01:16:35;99598.31;;;16.83;48.44
15880;BME280;61999;51.514;14.614;2023-07-13T01:19:21;99604.44;;;16.84;48.18
15880;BME280;61999;51.514;14.614;2023-07-13T01:21:58;99612.78;;;16.81;47.85
15880;BME280;61999;51.514;14.614;2023-07-13T01:24:25;99617.50;;;16.70;49.40
15880;BME280;61999;51.514;14.614;2023-07-13T01:26:54;99624.50;;;16.71;48.70
15880;BME280;61999;51.514;14.614;2023-07-13T01:29:22;99621.16;;;16.69;48.63
15880;BME280;61999;51.514;14.614;2023-07-13T01:31:50;99631.81;;;16.69;48.80
15880;BME280;61999;51.514;14.614;2023-07-13T01:34:18;99633.75;;;16.36;50.12
15880;BME280;61999;51.514;14.614;2023-07-13T01:36:46;99637.56;;;16.25;50.77
15880;BME280;61999;51.514;14.614;2023-07-13T01:39:19;99638.84;;;16.46;49.49
15880;BME280;61999;51.514;14.614;2023-07-13T01:41:47;99644.00;;;16.47;49.24
15880;BME280;61999;51.514;14.614;2023-07-13T01:44:15;99642.88;;;16.50;49.45
15880;BME280;61999;51.514;14.614;2023-07-13T01:46:43;99643.19;;;16.47;49.03
15880;BME280;61999;51.514;14.614;2023-07-13T01:49:11;99643.84;;;16.49;49.04
15880;BME280;61999;51.514;14.614;2023-07-13T01:51:39;99643.34;;;16.54;48.39
15880;BME280;61999;51.514;14.614;2023-07-13T01:54:07;99641.16;;;16.49;49.07
15880;BME280;61999;51.514;14.614;2023-07-13T01:56:37;99644.84;;;16.48;48.99
15880;BME280;61999;51.514;14.614;2023-07-13T01:59:05;99644.19;;;16.54;48.84
15880;BME280;61999;51.514;14.614;2023-07-13T02:01:33;99653.53;;;16.34;50.03
15880;BME280;61999;51.514;14.614;2023-07-13T02:04:01;99667.19;;;14.64;52.27
15880;BME280;61999;51.514;14.614;2023-07-13T02:06:30;99680.78;;;13.73;54.58
15880;BME280;61999;51.514;14.614;2023-07-13T02:08:58;99686.94;;;13.99;53.53
15880;BME280;61999;51.514;14.614;2023-07-13T02:11:26;99699.91;;;13.67;53.08
15880;BME280;61999;51.514;14.614;2023-07-13T02:14:01;99701.88;;;13.37;52.75
15880;BME280;61999;51.514;14.614;2023-07-13T02:16:30;99689.34;;;14.11;51.50
15880;BME280;61999;51.514;14.614;2023-07-13T02:18:58;99677.66;;;15.08;49.00
15880;BME280;61999;51.514;14.614;2023-07-13T02:21:27;99671.16;;;15.53;47.90
15880;BME280;61999;51.514;14.614;2023-07-13T02:23:55;99662.22;;;15.78;46.53
15880;BME280;61999;51.514;14.614;2023-07-13T02:26:24;99661.56;;;15.93;46.24
15880;BME280;61999;51.514;14.614;2023-07-13T02:28:52;99648.56;;;16.06;45.64
15880;BME280;61999;51.514;14.614;2023-07-13T02:31:22;99647.75;;;16.14;45.75
15880;BME280;61999;51.514;14.614;2023-07-13T02:33:50;99648.22;;;16.17;45.78
15880;BME280;61999;51.514;14.614;2023-07-13T02:36:18;99651.56;;;16.19;46.06
15880;BME280;61999;51.514;14.614;2023-07-13T02:38:49;99653.69;;;16.24;46.16
15880;BME280;61999;51.514;14.614;2023-07-13T02:41:17;99644.88;;;16.23;46.25
15880;BME280;61999;51.514;14.614;2023-07-13T02:43:45;99644.88;;;16.23;46.07
15880;BME280;61999;51.514;14.614;2023-07-13T02:46:13;99651.03;;;16.24;46.74
15880;BME280;61999;51.514;14.614;2023-07-13T02:48:42;99656.53;;;16.22;47.37
15880;BME280;61999;51.514;14.614;2023-07-13T02:51:10;99660.22;;;16.21;46.75
15880;BME280;61999;51.514;14.614;2023-07-13T02:53:39;99656.88;;;16.19;46.96
15880;BME280;61999;51.514;14.614;2023-07-13T02:56:07;99651.56;;;16.19;46.67
15880;BME280;61999;51.514;14.614;2023-07-13T02:58:35;99654.22;;;16.19;47.02
15880;BME280;61999;51.514;14.614;2023-07-13T03:01:08;99654.22;;;16.11;47.67
15880;BME280;61999;51.514;14.614;2023-07-13T03:03:36;99666.84;;;16.09;47.65
15880;BME280;61999;51.514;14.614;2023-07-13T03:06:06;99666.84;;;16.01;48.07
15880;BME280;61999;51.514;14.614;2023-07-13T03:08:35;99662.22;;;15.87;48.70
15880;BME280;61999;51.514;14.614;2023-07-13T03:11:06;99666.56;;;15.88;48.11
15880;BME280;61999;51.514;14.614;2023-07-13T03:13:35;99663.06;;;15.87;47.57
15880;BME280;61999;51.514;14.614;2023-07-13T03:16:04;99673.69;;;15.87;47.25
15880;BME280;61999;51.514;14.614;2023-07-13T03:18:32;99667.53;;;15.87;47.44
15880;BME280;61999;51.514;14.614;2023-07-13T03:21:00;99675.69;;;15.85;47.28
15880;BME280;61999;51.514;14.614;2023-07-13T03:23:30;99671.78;;;15.38;49.03
15880;BME280;61999;51.514;14.614;2023-07-13T03:26:03;99665.50;;;15.56;48.40
15880;BME280;61999;51.514;14.614;2023-07-13T03:28:32;99672.47;;;15.57;47.99
15880;BME280;61999;51.514;14.614;2023-07-13T03:31:04;99673.78;;;15.61;47.75
15880;BME280;61999;51.514;14.614;2023-07-13T03:33:32;99687.75;;;15.63;48.10
15880;BME280;61999;51.514;14.614;2023-07-13T03:36:00;99689.75;;;15.61;48.08
15880;BME280;61999;51.514;14.614;2023-07-13T03:38:30;99694.06;;;15.54;49.08
15880;BME280;61999;51.514;14.614;2023-07-13T03:40:58;99688.41;;;15.49;49.29
15880;BME280;61999;51.514;14.614;2023-07-13T03:43:26;99689.06;;;15.51;48.90
15880;BME280;61999;51.514;14.614;2023-07-13T03:45:54;99689.72;;;15.45;49.39
15880;BME280;61999;51.514;14.614;2023-07-13T03:48:23;99690.72;;;15.52;49.08
15880;BME280;61999;51.514;14.614;2023-07-13T03:50:51;99700.03;;;15.48;49.43
15880;BME280;61999;51.514;14.614;2023-07-13T03:53:19;99696.97;;;15.26;50.89
15880;BME280;61999;51.514;14.614;2023-07-13T03:55:48;99705.78;;;15.19;51.02
15880;BME280;61999;51.514;14.614;2023-07-13T03:58:32;99704.94;;;15.26;50.30
15880;BME280;61999;51.514;14.614;2023-07-13T04:01:03;99704.00;;;15.35;49.88
15880;BME280;61999;51.514;14.614;2023-07-13T04:03:33;99699.00;;;15.40;49.48
15880;BME280;61999;51.514;14.614;2023-07-13T04:06:02;99713.78;;;15.43;49.61
15880;BME280;61999;51.514;14.614;2023-07-13T04:08:33;99707.00;;;15.49;49.53
15880;BME280;61999;51.514;14.614;2023-07-13T04:11:04;99709.84;;;15.47;49.91
15880;BME280;61999;51.514;14.614;2023-07-13T04:13:32;99699.38;;;15.54;49.89
15880;BME280;61999;51.514;14.614;2023-07-13T04:16:00;99714.00;;;15.58;50.17
15880;BME280;61999;51.514;14.614;2023-07-13T04:18:28;99717.16;;;15.61;50.37
15880;BME280;61999;51.514;14.614;2023-07-13T04:20:56;99719.66;;;15.63;50.55
15880;BME280;61999;51.514;14.614;2023-07-13T04:23:24;99716.31;;;15.61;51.25
15880;BME280;61999;51.514;14.614;2023-07-13T04:25:53;99728.13;;;15.58;52.01
15880;BME280;61999;51.514;14.614;2023-07-13T04:28:24;99738.56;;;15.52;53.09
15880;BME280;61999;51.514;14.614;2023-07-13T04:30:53;99746.22;;;15.63;51.72
15880;BME280;61999;51.514;14.614;2023-07-13T04:33:22;99753.84;;;15.50;52.25
15880;BME280;61999;51.514;14.614;2023-07-13T04:35:51;99745.56;;;15.53;51.88
15880;BME280;61999;51.514;14.614;2023-07-13T04:38:21;99749.25;;;15.68;51.24
15880;BME280;61999;51.514;14.614;2023-07-13T04:40:51;99756.91;;;15.79;50.63
15880;BME280;61999;51.514;14.614;2023-07-13T04:43:19;99753.28;;;15.89;50.61
15880;BME280;61999;51.514;14.614;2023-07-13T04:45:49;99745.16;;;15.98;50.09
15880;BME280;61999;51.514;14.614;2023-07-13T04:48:18;99743.66;;;16.04;50.16
15880;BME280;61999;51.514;14.614;2023-07-13T04:50:47;99750.13;;;16.10;49.50
15880;BME280;61999;51.514;14.614;2023-07-13T04:53:16;99756.81;;;16.14;49.56
15880;BME280;61999;51.514;14.614;2023-07-13T04:55:44;99759.47;;;16.14;49.94
15880;BME280;61999;51.514;14.614;2023-07-13T04:58:13;99762.94;;;16.06;51.15
15880;BME280;61999;51.514;14.614;2023-07-13T05:00:41;99760.53;;;15.62;51.29
15880;BME280;61999;51.514;14.614;2023-07-13T05:03:11;99759.31;;;16.07;50.13
15880;BME280;61999;51.514;14.614;2023-07-13T05:05:39;99755.63;;;16.16;49.97
15880;BME280;61999;51.514;14.614;2023-07-13T05:08:07;99758.97;;;16.10;49.43
15880;BME280;61999;51.514;14.614;2023-07-13T05:10:36;99760.28;;;16.06;49.26
15880;BME280;61999;51.514;14.614;2023-07-13T05:13:03;99764.53;;;15.74;50.23
15880;BME280;61999;51.514;14.614;2023-07-13T05:15:33;99761.63;;;16.18;49.55
15880;BME280;61999;51.514;14.614;2023-07-13T05:18:01;99758.78;;;16.36;48.88
15880;BME280;61999;51.514;14.614;2023-07-13T05:20:30;99764.97;;;16.53;49.71
15880;BME280;61999;51.514;14.614;2023-07-13T05:22:58;99760.94;;;16.65;49.42
15880;BME280;61999;51.514;14.614;2023-07-13T05:25:26;99766.25;;;16.73;49.12
15880;BME280;61999;51.514;14.614;2023-07-13T05:27:54;99761.41;;;16.77;48.73
15880;BME280;61999;51.514;14.614;2023-07-13T05:30:22;99763.25;;;16.85;48.40
15880;BME280;61999;51.514;14.614;2023-07-13T05:32:50;99772.53;;;16.89;47.95
15880;BME280;61999;51.514;14.614;2023-07-13T05:35:18;99780.19;;;16.92;47.46
15880;BME280;61999;51.514;14.614;2023-07-13T05:37:48;99786.69;;;16.89;47.91
15880;BME280;61999;51.514;14.614;2023-07-13T05:40:16;99785.16;;;16.95;47.26
15880;BME280;61999;51.514;14.614;2023-07-13T05:42:44;99784.38;;;16.78;47.41
15880;BME280;61999;51.514;14.614;2023-07-13T05:45:12;99779.81;;;17.03;47.36
15880;BME280;61999;51.514;14.614;2023-07-13T05:47:40;99783.81;;;17.15;47.37
15880;BME280;61999;51.514;14.614;2023-07-13T05:50:08;99783.44;;;17.27;47.27
15880;BME280;61999;51.514;14.614;2023-07-13T05:52:36;99789.88;;;17.40;46.62
15880;BME280;61999;51.514;14.614;2023-07-13T05:55:07;99774.78;;;17.25;47.51
15880;BME280;61999;51.514;14.614;2023-07-13T05:57:35;99786.06;;;17.35;47.05
15880;BME280;61999;51.514;14.614;2023-07-13T06:00:03;99779.06;;;17.34;46.58
15880;BME280;61999;51.514;14.614;2023-07-13T06:02:31;99787.06;;;17.34;46.73
15880;BME280;61999;51.514;14.614;2023-07-13T06:04:59;99791.34;;;17.43;46.79
15880;BME280;61999;51.514;14.614;2023-07-13T06:07:28;99788.69;;;17.43;46.74
15880;BME280;61999;51.514;14.614;2023-07-13T06:09:56;99788.66;;;17.51;46.60
15880;BME280;61999;51.514;14.614;2023-07-13T06:12:27;99791.03;;;17.38;46.10
15880;BME280;61999;51.514;14.614;2023-07-13T06:14:55;99785.09;;;17.28;46.90
15880;BME280;61999;51.514;14.614;2023-07-13T06:17:23;99785.06;;;17.36;46.41
15880;BME280;61999;51.514;14.614;2023-07-13T06:19:51;99788.56;;;17.36;46.41
15880;BME280;61999;51.514;14.614;2023-07-13T06:22:19;99785.44;;;17.33;46.83
15880;BME280;61999;51.514;14.614;2023-07-13T06:24:47;99786.06;;;17.35;46.18
15880;BME280;61999;51.514;14.614;2023-07-13T06:27:16;99786.78;;;17.21;46.74
15880;BME280;61999;51.514;14.614;2023-07-13T06:29:45;99794.75;;;17.29;47.15
15880;BME280;61999;51.514;14.614;2023-07-13T06:32:13;99789.03;;;17.40;47.49
15880;BME280;61999;51.514;14.614;2023-07-13T06:34:41;99795.41;;;17.31;47.28
15880;BME280;61999;51.514;14.614;2023-07-13T06:37:10;99789.09;;;17.24;47.65
15880;BME280;61999;51.514;14.614;2023-07-13T06:39:38;99791.88;;;17.38;47.08
15880;BME280;61999;51.514;14.614;2023-07-13T06:42:06;99786.31;;;17.56;47.00
15880;BME280;61999;51.514;14.614;2023-07-13T06:44:35;99786.50;;;17.78;47.07
15880;BME280;61999;51.514;14.614;2023-07-13T06:47:05;99778.78;;;17.91;46.86
15880;BME280;61999;51.514;14.614;2023-07-13T06:49:33;99792.44;;;17.96;45.73
15880;BME280;61999;51.514;14.614;2023-07-13T06:52:05;99791.06;;;18.00;45.93
15880;BME280;61999;51.514;14.614;2023-07-13T06:54:33;99789.47;;;17.91;45.84
15880;BME280;61999;51.514;14.614;2023-07-13T06:57:02;99791.78;;;17.94;45.33
15880;BME280;61999;51.514;14.614;2023-07-13T06:59:30;99792.06;;;17.99;46.08
15880;BME280;61999;51.514;14.614;2023-07-13T07:01:58;99798.41;;;17.98;45.68
15880;BME280;61999;51.514;14.614;2023-07-13T07:04:27;99799.72;;;18.02;45.63
15880;BME280;61999;51.514;14.614;2023-07-13T07:06:55;99803.88;;;18.05;44.68
15880;BME280;61999;51.514;14.614;2023-07-13T07:09:24;99803.06;;;18.04;45.19
15880;BME280;61999;51.514;14.614;2023-07-13T07:11:53;99799.94;;;18.16;45.30
15880;BME280;61999;51.514;14.614;2023-07-13T07:14:28;99802.06;;;17.27;45.14
15880;BME280;61999;51.514;14.614;2023-07-13T07:16:56;99796.28;;;17.62;45.46
15880;BME280;61999;51.514;14.614;2023-07-13T07:19:27;99795.38;;;18.01;44.57
15880;BME280;61999;51.514;14.614;2023-07-13T07:21:55;99803.31;;;18.10;44.76
15880;BME280;61999;51.514;14.614;2023-07-13T07:24:23;99801.75;;;17.61;46.28
15880;BME280;61999;51.514;14.614;2023-07-13T07:26:51;99806.13;;;17.93;45.81
15880;BME280;61999;51.514;14.614;2023-07-13T07:29:26;99797.22;;;18.24;44.69
15880;BME280;61999;51.514;14.614;2023-07-13T07:32:00;99806.75;;;18.41;44.31
15880;BME280;61999;51.514;14.614;2023-07-13T07:34:31;99812.00;;;18.58;43.34
15880;BME280;61999;51.514;14.614;2023-07-13T07:37:01;99811.88;;;18.51;42.98
15880;BME280;61999;51.514;14.614;2023-07-13T07:39:32;99822.16;;;18.77;42.50
15880;BME280;61999;51.514;14.614;2023-07-13T07:42:00;99822.25;;;18.98;42.17
15880;BME280;61999;51.514;14.614;2023-07-13T07:44:28;99826.19;;;19.11;42.00
15880;BME280;61999;51.514;14.614;2023-07-13T07:46:56;99812.38;;;19.22;40.52
15880;BME280;61999;51.514;14.614;2023-07-13T07:49:25;99813.28;;;19.29;40.02
15880;BME280;61999;51.514;14.614;2023-07-13T07:51:54;99819.69;;;19.50;40.30
15880;BME280;61999;51.514;14.614;2023-07-13T07:54:22;99823.94;;;19.59;39.53
15880;BME280;61999;51.514;14.614;2023-07-13T07:56:56;99820.06;;;19.76;39.71
15880;BME280;61999;51.514;14.614;2023-07-13T07:59:26;99823.34;;;19.78;39.46
15880;BME280;61999;51.514;14.614;2023-07-13T08:01:57;99825.53;;;19.90;38.89
15880;BME280;61999;51.514;14.614;2023-07-13T08:04:28;99827.28;;;19.97;39.30
15880;BME280;61999;51.514;14.614;2023-07-13T08:07:01;99829.69;;;19.92;38.32
15880;BME280;61999;51.514;14.614;2023-07-13T08:09:29;99835.00;;;19.56;38.19
15880;BME280;61999;51.514;14.614;2023-07-13T08:11:57;99836.34;;;19.96;37.26
15880;BME280;61999;51.514;14.614;2023-07-13T08:14:28;99835.63;;;20.09;37.23
15880;BME280;61999;51.514;14.614;2023-07-13T08:17:05;99838.66;;;18.95;37.56
15880;BME280;61999;51.514;14.614;2023-07-13T08:19:33;99844.97;;;18.65;37.39
15880;BME280;61999;51.514;14.614;2023-07-13T08:22:02;99840.09;;;20.02;36.42
15880;BME280;61999;51.514;14.614;2023-07-13T08:24:30;99842.94;;;20.37;36.28
15880;BME280;61999;51.514;14.614;2023-07-13T08:26:58;99837.81;;;20.63;36.28
15880;BME280;61999;51.514;14.614;2023-07-13T08:29:26;99836.03;;;20.49;34.74
15880;BME280;61999;51.514;14.614;2023-07-13T08:31:54;99839.03;;;20.82;35.63
15880;BME280;61999;51.514;14.614;2023-07-13T08:34:23;99833.56;;;20.97;35.32
15880;BME280;61999;51.514;14.614;2023-07-13T08:36:52;99834.88;;;21.08;35.98
15880;BME280;61999;51.514;14.614;2023-07-13T08:39:22;99836.00;;;21.27;35.51
15880;BME280;61999;51.514;14.614;2023-07-13T08:41:57;99834.66;;;21.44;34.97
15880;BME280;61999;51.514;14.614;2023-07-13T08:44:39;99833.53;;;21.67;35.35
15880;BME280;61999;51.514;14.614;2023-07-13T08:47:15;99825.28;;;21.75;33.64
15880;BME280;61999;51.514;14.614;2023-07-13T08:49:44;99831.53;;;21.89;34.15
15880;BME280;61999;51.514;14.614;2023-07-13T08:52:26;99830.16;;;22.19;33.93
15880;BME280;61999;51.514;14.614;2023-07-13T08:55:13;99832.09;;;22.52;33.50
15880;BME280;61999;51.514;14.614;2023-07-13T08:57:51;99833.72;;;22.40;32.22
15880;BME280;61999;51.514;14.614;2023-07-13T09:00:22;99832.09;;;22.45;31.11
15880;BME280;61999;51.514;14.614;2023-07-13T09:02:57;99837.03;;;22.55;31.14
15880;BME280;61999;51.514;14.614;2023-07-13T09:05:32;99830.59;;;22.89;31.27
15880;BME280;61999;51.514;14.614;2023-07-13T09:08:32;99826.59;;;23.25;31.12
15880;BME280;61999;51.514;14.614;2023-07-13T09:11:16;99831.44;;;23.10;29.39
15880;BME280;61999;51.514;14.614;2023-07-13T09:13:58;99816.34;;;23.09;29.37
15880;BME280;61999;51.514;14.614;2023-07-13T09:16:27;99835.41;;;22.74;29.91
15880;BME280;61999;51.514;14.614;2023-07-13T09:19:02;99833.31;;;22.76;29.62
15880;BME280;61999;51.514;14.614;2023-07-13T09:21:35;99834.53;;;22.93;28.67
15880;BME280;61999;51.514;14.614;2023-07-13T09:24:31;99827.22;;;23.34;28.70
15880;BME280;61999;51.514;14.614;2023-07-13T09:27:14;99831.09;;;23.58;27.98
15880;BME280;61999;51.514;14.614;2023-07-13T09:29:51;99833.06;;;23.76;28.13
15880;BME280;61999;51.514;14.614;2023-07-13T09:32:24;99829.03;;;23.47;27.80
15880;BME280;61999;51.514;14.614;2023-07-13T09:34:55;99837.88;;;22.56;28.25
15880;BME280;61999;51.514;14.614;2023-07-13T09:37:31;99828.72;;;23.10;27.84
15880;BME280;61999;51.514;14.614;2023-07-13T09:40:02;99834.44;;;23.33;27.78
15880;BME280;61999;51.514;14.614;2023-07-13T09:42:33;99841.75;;;23.19;27.60
15880;BME280;61999;51.514;14.614;2023-07-13T09:45:02;99846.69;;;23.29;27.10
15880;BME280;61999;51.514;14.614;2023-07-13T09:47:39;99843.38;;;23.27;27.33
15880;BME280;61999;51.514;14.614;2023-07-13T09:50:14;99848.53;;;23.35;27.91
15880;BME280;61999;51.514;14.614;2023-07-13T09:52:46;99845.69;;;22.37;28.60
15880;BME280;61999;51.514;14.614;2023-07-13T09:55:26;99845.72;;;22.84;27.58
15880;BME280;61999;51.514;14.614;2023-07-13T09:57:56;99847.94;;;22.14;28.58
15880;BME280;61999;51.514;14.614;2023-07-13T10:00:29;99850.91;;;21.84;27.81
15880;BME280;61999;51.514;14.614;2023-07-13T10:03:01;99859.13;;;21.62;29.70
15880;BME280;61999;51.514;14.614;2023-07-13T10:05:43;99858.38;;;21.40;29.95
15880;BME280;61999;51.514;14.614;2023-07-13T10:08:23;99861.84;;;21.34;30.29
15880;BME280;61999;51.514;14.614;2023-07-13T10:11:00;99863.75;;;20.84;30.77
15880;BME280;61999;51.514;14.614;2023-07-13T10:13:40;99876.00;;;18.66;35.00
15880;BME280;61999;51.514;14.614;2023-07-13T10:16:11;99862.81;;;20.49;32.40
15880;BME280;61999;51.514;14.614;2023-07-13T10:18:46;99865.84;;;21.17;31.16
15880;BME280;61999;51.514;14.614;2023-07-13T10:21:18;99870.13;;;21.81;30.70
15880;BME280;61999;51.514;14.614;2023-07-13T10:24:22;99874.63;;;22.28;29.36
15880;BME280;61999;51.514;14.614;2023-07-13T10:26:58;99871.50;;;22.25;29.15
15880;BME280;61999;51.514;14.614;2023-07-13T10:29:39;99873.34;;;22.18;29.75
15880;BME280;61999;51.514;14.614;2023-07-13T10:32:13;99870.09;;;22.42;29.29
15880;BME280;61999;51.514;14.614;2023-07-13T10:34:46;99871.16;;;22.55;27.96
15880;BME280;61999;51.514;14.614;2023-07-13T10:37:22;99873.44;;;23.04;27.78
15880;BME280;61999;51.514;14.614;2023-07-13T10:39:56;99868.88;;;23.11;28.05
15880;BME280;61999;51.514;14.614;2023-07-13T10:42:32;99875.06;;;22.59;27.93
15880;BME280;61999;51.514;14.614;2023-07-13T10:45:14;99867.22;;;22.50;28.18
15880;BME280;61999;51.514;14.614;2023-07-13T10:47:52;99871.53;;;19.49;31.78
15880;BME280;61999;51.514;14.614;2023-07-13T10:50:25;99873.19;;;19.79;33.09
15880;BME280;61999;51.514;14.614;2023-07-13T10:53:02;99861.13;;;21.54;30.34
15880;BME280;61999;51.514;14.614;2023-07-13T10:55:59;99858.50;;;22.35;28.87
15880;BME280;61999;51.514;14.614;2023-07-13T10:58:33;99865.47;;;23.62;27.80
15880;BME280;61999;51.514;14.614;2023-07-13T11:01:18;99861.28;;;23.67;25.09
15880;BME280;61999;51.514;14.614;2023-07-13T11:03:50;99852.25;;;23.93;26.03
15880;BME280;61999;51.514;14.614;2023-07-13T11:06:36;99858.03;;;25.83;24.79
15880;BME280;61999;51.514;14.614;2023-07-13T11:09:31;99847.16;;;26.20;23.00
15880;BME280;61999;51.514;14.614;2023-07-13T11:12:02;99843.56;;;25.78;23.69
15880;BME280;61999;51.514;14.614;2023-07-13T11:14:37;99840.69;;;24.99;24.33
15880;BME280;61999;51.514;14.614;2023-07-13T11:17:36;99852.44;;;23.98;24.62
15880;BME280;61999;51.514;14.614;2023-07-13T11:20:23;99847.78;;;22.95;26.41
15880;BME280;61999;51.514;14.614;2023-07-13T11:23:29;99845.69;;;21.28;27.18
15880;BME280;61999;51.514;14.614;2023-07-13T11:25:58;99845.69;;;21.28;28.19
15880;BME280;61999;51.514;14.614;2023-07-13T11:28:31;99845.63;;;21.97;28.52
15880;BME280;61999;51.514;14.614;2023-07-13T11:31:14;99855.22;;;22.73;26.30
15880;BME280;61999;51.514;14.614;2023-07-13T11:33:57;99854.66;;;20.36;30.19
15880;BME280;61999;51.514;14.614;2023-07-13T11:36:36;99859.66;;;19.66;31.56
15880;BME280;61999;51.514;14.614;2023-07-13T11:39:18;99854.09;;;19.82;31.23
15880;BME280;61999;51.514;14.614;2023-07-13T11:41:52;99858.72;;;19.29;32.19
15880;BME280;61999;51.514;14.614;2023-07-13T11:44:24;99864.56;;;18.95;30.90
15880;BME280;61999;51.514;14.614;2023-07-13T11:46:55;99856.94;;;19.07;31.85
15880;BME280;61999;51.514;14.614;2023-07-13T11:49:30;99854.38;;;19.88;30.55
15880;BME280;61999;51.514;14.614;2023-07-13T11:52:00;99859.34;;;19.91;30.80
15880;BME280;61999;51.514;14.614;2023-07-13T11:54:32;99872.75;;;19.31;31.91
15880;BME280;61999;51.514;14.614;2023-07-13T11:57:10;99862.34;;;18.15;34.49
15880;BME280;61999;51.514;14.614;2023-07-13T11:59:44;99852.22;;;18.33;33.96
15880;BME280;61999;51.514;14.614;2023-07-13T12:02:22;99858.84;;;18.98;32.95
15880;BME280;61999;51.514;14.614;2023-07-13T12:04:56;99863.03;;;18.63;33.99
15880;BME280;61999;51.514;14.614;2023-07-13T12:07:24;99856.25;;;17.58;36.13
15880;BME280;61999;51.514;14.614;2023-07-13T12:09:52;99859.22;;;18.95;33.94
15880;BME280;61999;51.514;14.614;2023-07-13T12:12:28;99858.81;;;19.21;33.40
15880;BME280;61999;51.514;14.614;2023-07-13T12:14:57;99858.47;;;19.90;32.67
15880;BME280;61999;51.514;14.614;2023-07-13T12:17:26;99859.63;;;19.81;31.62
15880;BME280;61999;51.514;14.614;2023-07-13T12:19:57;99860.38;;;20.11;31.57
15880;BME280;61999;51.514;14.614;2023-07-13T12:22:27;99856.66;;;20.12;31.83
15880;BME280;61999;51.514;14.614;2023-07-13T12:24:56;99861.53;;;20.66;31.23
15880;BME280;61999;51.514;14.614;2023-07-13T12:27:27;99850.56;;;20.61;30.59
15880;BME280;61999;51.514;14.614;2023-07-13T12:30:00;99855.56;;;18.73;33.17
15880;BME280;61999;51.514;14.614;2023-07-13T12:32:29;99859.63;;;19.51;32.95
15880;BME280;61999;51.514;14.614;2023-07-13T12:35:15;99853.72;;;20.07;31.27
15880;BME280;61999;51.514;14.614;2023-07-13T12:37:45;99860.00;;;20.14;30.72
15880;BME280;61999;51.514;14.614;2023-07-13T12:40:16;99857.97;;;18.22;33.00
15880;BME280;61999;51.514;14.614;2023-07-13T12:42:49;99854.16;;;19.00;33.26
15880;BME280;61999;51.514;14.614;2023-07-13T12:45:23;99839.66;;;20.20;31.68
15880;BME280;61999;51.514;14.614;2023-07-13T12:47:59;99847.84;;;18.78;32.75
15880;BME280;61999;51.514;14.614;2023-07-13T12:50:40;99848.69;;;19.31;32.35
15880;BME280;61999;51.514;14.614;2023-07-13T12:53:15;99845.41;;;20.60;30.91
15880;BME280;61999;51.514;14.614;2023-07-13T12:55:49;99838.44;;;21.56;29.17
15880;BME280;61999;51.514;14.614;2023-07-13T12:58:26;99843.78;;;21.50;27.37
15880;BME280;61999;51.514;14.614;2023-07-13T13:00:58;99833.56;;;21.80;27.59
15880;BME280;61999;51.514;14.614;2023-07-13T13:03:32;99834.34;;;20.91;27.87
15880;BME280;61999;51.514;14.614;2023-07-13T13:06:05;99835.44;;;20.25;28.92
15880;BME280;61999;51.514;14.614;2023-07-13T13:08:35;99834.31;;;20.41;30.01
15880;BME280;61999;51.514;14.614;2023-07-13T13:11:04;99828.00;;;20.49;30.09
15880;BME280;61999;51.514;14.614;2023-07-13T13:13:32;99823.75;;;22.00;27.75